createdAt,value
2019-01-11T00:01:35.764Z,3.18
2019-01-11T00:04:08.086Z,3.13
2019-01-11T00:06:39.697Z,3.11
2019-01-11T00:09:12.501Z,3.04
2019-01-11T00:11:43.901Z,3.01
2019-01-11T00:14:14.464Z,3.06
2019-01-11T00:16:45.280Z,3.03
2019-01-11T00:19:19.026Z,3.06
2019-01-11T00:21:53.752Z,3.09
2019-01-11T00:24:24.379Z,3.00
2019-01-11T00:26:57.967Z,2.99
2019-01-11T00:29:28.410Z,3.03
2019-01-11T00:31:58.901Z,3.04
2019-01-11T00:34:31.401Z,3.05
2019-01-11T00:37:01.960Z,3.02
2019-01-11T00:39:32.639Z,2.97
2019-01-11T00:42:03.273Z,2.99
2019-01-11T00:44:33.849Z,2.95
2019-01-11T00:47:04.672Z,2.93
2019-01-11T00:49:35.055Z,2.90
2019-01-11T00:52:07.268Z,2.84
2019-01-11T00:54:37.785Z,2.88
2019-01-11T00:57:08.617Z,2.90
2019-01-11T00:59:39.322Z,2.86
2019-01-11T01:02:11.631Z,2.91
2019-01-11T01:04:44.187Z,2.90
2019-01-11T01:07:14.806Z,2.93
2019-01-11T01:09:46.051Z,2.91
2019-01-11T01:12:16.549Z,2.89
2019-01-11T01:14:47.180Z,2.89
2019-01-11T01:17:18.829Z,2.87
2019-01-11T01:19:49.979Z,2.91
2019-01-11T01:22:20.829Z,2.90
2019-01-11T01:24:51.316Z,2.88
2019-01-11T01:27:21.760Z,2.78
2019-01-11T01:29:52.350Z,2.75
2019-01-11T01:32:22.698Z,2.76
2019-01-11T01:34:53.175Z,2.76
2019-01-11T01:37:23.737Z,2.69
2019-01-11T01:39:54.361Z,2.70
2019-01-11T01:42:25.198Z,2.67
2019-01-11T01:44:58.407Z,2.69
2019-01-11T01:47:29.685Z,2.59
2019-01-11T01:50:00.037Z,2.56
2019-01-11T01:52:33.600Z,2.58
2019-01-11T01:55:04.752Z,2.55
2019-01-11T01:57:35.129Z,2.61
2019-01-11T02:00:07.859Z,2.56
2019-01-11T02:02:38.274Z,2.54
2019-01-11T02:05:09.487Z,2.54
2019-01-11T02:07:39.915Z,2.59
2019-01-11T02:10:14.089Z,2.54
2019-01-11T02:12:47.865Z,2.56
2019-01-11T02:15:20.379Z,2.55
2019-01-11T02:17:50.829Z,2.57
2019-01-11T02:20:21.297Z,2.63
2019-01-11T02:22:52.273Z,2.58
2019-01-11T02:25:22.968Z,2.62
2019-01-11T02:27:53.486Z,2.58
2019-01-11T02:30:26.251Z,2.59
2019-01-11T02:32:59.678Z,2.60
2019-01-11T02:35:30.320Z,2.59
2019-01-11T02:38:01.024Z,2.60
2019-01-11T02:40:31.957Z,2.58
2019-01-11T02:43:02.394Z,2.63
2019-01-11T02:45:33.116Z,2.64
2019-01-11T02:48:03.503Z,2.59
2019-01-11T02:50:34.743Z,2.60
2019-01-11T02:53:05.152Z,2.60
2019-01-11T02:55:35.589Z,2.61
2019-01-11T02:58:05.926Z,2.60
2019-01-11T03:00:38.457Z,2.61
2019-01-11T03:03:08.806Z,2.62
2019-01-11T03:05:39.683Z,2.63
2019-01-11T03:08:10.032Z,2.63
2019-01-11T03:10:40.501Z,2.63
2019-01-11T03:13:10.869Z,2.68
2019-01-11T03:15:41.288Z,2.64
2019-01-11T03:18:11.579Z,2.66
2019-01-11T03:20:42.054Z,2.66
2019-01-11T03:23:12.401Z,2.68
2019-01-11T03:25:42.789Z,2.63
2019-01-11T03:28:13.203Z,2.63
2019-01-11T03:30:43.697Z,2.69
2019-01-11T03:33:15.197Z,2.67
2019-01-11T03:35:46.587Z,2.71
2019-01-11T03:38:17.007Z,2.71
2019-01-11T03:40:47.338Z,2.72
2019-01-11T03:43:17.895Z,2.70
2019-01-11T03:45:48.253Z,2.72
2019-01-11T03:48:21.553Z,2.73
2019-01-11T03:50:51.974Z,2.72
2019-01-11T03:53:22.641Z,2.71
2019-01-11T03:55:53.083Z,2.74
2019-01-11T03:58:23.475Z,2.72
2019-01-11T04:00:53.800Z,2.72
2019-01-11T04:03:27.280Z,2.74
2019-01-11T04:05:57.648Z,2.74
2019-01-11T04:08:28.073Z,2.73
2019-01-11T04:10:58.513Z,2.76
2019-01-11T04:13:30.595Z,2.82
2019-01-11T04:16:01.150Z,2.79
2019-01-11T04:18:36.067Z,2.86
2019-01-11T04:21:06.452Z,2.82
2019-01-11T04:23:37.003Z,2.82
2019-01-11T04:26:07.451Z,2.82
2019-01-11T04:28:37.926Z,2.85
2019-01-11T04:31:08.306Z,2.84
2019-01-11T04:33:38.772Z,2.87
2019-01-11T04:36:09.149Z,2.86
2019-01-11T04:38:39.883Z,2.89
2019-01-11T04:41:10.571Z,2.87
2019-01-11T04:43:41.069Z,2.92
2019-01-11T04:46:11.586Z,2.89
2019-01-11T04:48:44.636Z,2.97
2019-01-11T04:51:15.009Z,2.93
2019-01-11T04:53:45.427Z,2.92
2019-01-11T04:56:16.058Z,2.95
2019-01-11T04:58:46.452Z,2.95
2019-01-11T05:01:16.822Z,2.95
2019-01-11T05:03:47.249Z,2.99
2019-01-11T05:06:17.720Z,2.98
2019-01-11T05:08:48.109Z,2.97
2019-01-11T05:11:18.475Z,2.97
2019-01-11T05:13:54.865Z,2.98
2019-01-11T05:16:25.271Z,3.00
2019-01-11T05:19:10.848Z,3.02
2019-01-11T05:21:41.405Z,3.03
2019-01-11T05:24:11.734Z,3.02
2019-01-11T05:26:42.168Z,3.06
2019-01-11T05:29:12.536Z,3.04
2019-01-11T05:31:44.000Z,3.03
2019-01-11T05:34:16.351Z,3.09
2019-01-11T05:36:46.770Z,3.12
2019-01-11T05:39:17.085Z,3.12
2019-01-11T05:41:50.761Z,3.22
2019-01-11T05:44:21.596Z,3.17
2019-01-11T05:46:52.399Z,3.19
2019-01-11T05:49:23.136Z,3.20
2019-01-11T05:51:55.601Z,3.17
2019-01-11T05:54:33.258Z,3.17
2019-01-11T05:57:05.340Z,3.27
2019-01-11T05:59:42.237Z,3.25
2019-01-11T06:02:12.821Z,3.27
2019-01-11T06:04:47.788Z,3.27
2019-01-11T06:07:22.190Z,3.25
2019-01-11T06:09:53.169Z,3.24
2019-01-11T06:12:26.971Z,3.26
2019-01-11T06:14:58.461Z,3.28
2019-01-11T06:17:28.842Z,3.30
2019-01-11T06:19:59.211Z,3.31
2019-01-11T06:22:29.633Z,3.35
2019-01-11T06:25:14.752Z,3.38
2019-01-11T06:27:45.244Z,3.38
2019-01-11T06:30:15.770Z,3.40
2019-01-11T06:32:46.520Z,3.41
2019-01-11T06:35:17.335Z,3.42
2019-01-11T06:37:47.857Z,3.44
2019-01-11T06:40:18.421Z,3.44
2019-01-11T06:42:49.170Z,3.42
2019-01-11T06:45:20.315Z,3.43
2019-01-11T06:47:50.960Z,3.44
2019-01-11T06:50:21.992Z,3.46
2019-01-11T06:52:53.956Z,3.47
2019-01-11T06:55:24.403Z,3.48
2019-01-11T06:57:54.837Z,3.51
2019-01-11T07:00:28.009Z,3.60
2019-01-11T07:02:58.511Z,3.64
2019-01-11T07:05:29.119Z,3.78
2019-01-11T07:07:59.839Z,3.77
2019-01-11T07:10:30.240Z,3.72
2019-01-11T07:13:00.687Z,3.72
2019-01-11T07:15:32.079Z,3.77
2019-01-11T07:18:02.588Z,3.83
2019-01-11T07:20:33.023Z,3.85
2019-01-11T07:23:03.384Z,3.82
2019-01-11T07:25:33.764Z,3.83
2019-01-11T07:28:04.119Z,3.96
2019-01-11T07:30:54.653Z,3.89
2019-01-11T07:33:25.934Z,3.93
2019-01-11T07:36:07.813Z,4.00
2019-01-11T07:38:39.793Z,4.00
2019-01-11T07:41:10.162Z,4.08
2019-01-11T07:43:40.569Z,4.09
2019-01-11T07:46:10.980Z,4.07
2019-01-11T07:48:41.348Z,4.08
2019-01-11T07:51:12.005Z,4.10
2019-01-11T07:53:42.381Z,4.04
2019-01-11T07:56:12.877Z,4.06
2019-01-11T07:58:43.437Z,4.05
2019-01-11T08:01:13.691Z,4.06
2019-01-11T08:03:44.323Z,4.07
2019-01-11T08:06:14.724Z,4.12
2019-01-11T08:08:48.067Z,4.27
2019-01-11T08:11:18.517Z,4.17
2019-01-11T08:13:49.246Z,4.13
2019-01-11T08:16:19.780Z,4.14
2019-01-11T08:18:51.536Z,4.18
2019-01-11T08:21:22.054Z,4.16
2019-01-11T08:23:52.668Z,4.23
2019-01-11T08:26:25.047Z,4.26
2019-01-11T08:28:55.802Z,4.25
2019-01-11T08:31:26.118Z,4.28
2019-01-11T08:33:57.162Z,4.27
2019-01-11T08:36:29.939Z,4.24
2019-01-11T08:39:00.368Z,4.23
2019-01-11T08:41:31.183Z,4.22
2019-01-11T08:44:01.800Z,4.19
2019-01-11T08:46:32.273Z,4.23
2019-01-11T08:49:02.645Z,4.26
2019-01-11T08:51:35.257Z,4.24
2019-01-11T08:54:08.213Z,4.33
2019-01-11T08:56:38.737Z,4.30
2019-01-11T08:59:09.454Z,4.34
2019-01-11T09:01:39.797Z,4.34
2019-01-11T09:04:10.225Z,4.37
2019-01-11T09:06:40.716Z,4.43
2019-01-11T09:09:13.260Z,4.46
2019-01-11T09:11:43.651Z,4.46
2019-01-11T09:14:33.017Z,4.50
2019-01-11T09:17:03.384Z,4.52
2019-01-11T09:19:33.850Z,4.58
2019-01-11T09:22:06.491Z,4.68
2019-01-11T09:24:37.065Z,4.64
2019-01-11T09:27:07.680Z,4.70
2019-01-11T09:29:41.006Z,4.72
2019-01-11T09:32:11.456Z,4.70
2019-01-11T09:34:41.822Z,4.78
2019-01-11T09:37:12.263Z,4.79
2019-01-11T09:39:42.692Z,4.80
2019-01-11T09:42:14.228Z,4.83
2019-01-11T09:44:44.841Z,4.85
2019-01-11T09:47:15.178Z,4.90
2019-01-11T09:49:45.588Z,4.90
2019-01-11T09:52:16.251Z,4.84
2019-01-11T09:54:46.648Z,4.90
2019-01-11T09:57:17.420Z,4.91
2019-01-11T09:59:47.783Z,4.91
2019-01-11T10:02:35.190Z,4.86
2019-01-11T10:05:07.467Z,4.92
2019-01-11T10:07:40.142Z,4.94
2019-01-11T10:10:20.505Z,5.05
2019-01-11T10:12:52.477Z,5.02
2019-01-11T10:15:22.903Z,5.02
2019-01-11T10:17:53.386Z,5.09
2019-01-11T10:20:24.174Z,5.17
2019-01-11T10:22:54.715Z,5.18
2019-01-11T10:25:25.257Z,5.29
2019-01-11T10:27:55.723Z,5.26
2019-01-11T10:30:26.878Z,5.30
2019-01-11T10:32:57.476Z,5.32
2019-01-11T10:35:28.209Z,5.46
2019-01-11T10:37:58.979Z,5.49
2019-01-11T10:40:29.649Z,5.53
2019-01-11T10:43:00.757Z,5.55
2019-01-11T10:45:31.179Z,5.58
2019-01-11T10:48:01.659Z,5.64
2019-01-11T10:50:32.098Z,5.63
2019-01-11T10:53:02.539Z,5.69
2019-01-11T10:55:33.742Z,5.66
2019-01-11T10:58:04.446Z,5.68
2019-01-11T11:00:35.603Z,5.76
2019-01-11T11:03:05.996Z,5.75
2019-01-11T11:05:36.607Z,5.78
2019-01-11T11:08:07.044Z,5.84
2019-01-11T11:10:37.437Z,5.90
2019-01-11T11:13:07.919Z,5.95
2019-01-11T11:15:40.548Z,5.89
2019-01-11T11:18:10.941Z,5.89
2019-01-11T11:20:44.203Z,5.94
2019-01-11T11:23:19.993Z,5.97
2019-01-11T11:25:51.574Z,5.97
2019-01-11T11:28:22.026Z,5.96
2019-01-11T11:30:52.754Z,6.05
2019-01-11T11:33:23.296Z,6.04
2019-01-11T11:35:53.841Z,6.07
2019-01-11T11:38:24.248Z,6.13
2019-01-11T11:40:54.951Z,6.19
2019-01-11T11:43:28.500Z,6.22
2019-01-11T11:45:59.006Z,6.27
2019-01-11T11:48:30.960Z,6.30
2019-01-11T11:51:03.469Z,6.32
2019-01-11T11:53:34.584Z,6.33
2019-01-11T11:56:04.986Z,6.33
2019-01-11T11:58:35.585Z,6.32
2019-01-11T12:01:07.987Z,6.35
2019-01-11T12:03:39.016Z,6.34
2019-01-11T12:06:09.593Z,6.34
2019-01-11T12:08:42.958Z,6.36
2019-01-11T12:11:14.601Z,6.40
2019-01-11T12:13:45.552Z,6.42
2019-01-11T12:16:18.839Z,6.42
2019-01-11T12:18:51.123Z,6.47
2019-01-11T12:21:23.329Z,6.47
2019-01-11T12:23:53.830Z,6.46
2019-01-11T12:26:24.703Z,6.58
2019-01-11T12:28:58.188Z,6.52
2019-01-11T12:31:32.219Z,6.54
2019-01-11T12:34:02.593Z,6.59
2019-01-11T12:36:33.180Z,6.53
2019-01-11T12:39:04.914Z,6.52
2019-01-11T12:41:35.993Z,6.49
2019-01-11T12:44:06.549Z,6.52
2019-01-11T12:46:39.695Z,6.53
2019-01-11T12:49:10.467Z,6.59
2019-01-11T12:51:42.485Z,6.65
2019-01-11T12:54:14.691Z,6.67
2019-01-11T12:56:45.748Z,6.61
2019-01-11T12:59:16.320Z,6.66
2019-01-11T13:01:46.669Z,6.63
2019-01-11T13:04:18.540Z,6.66
2019-01-11T13:06:50.181Z,6.67
2019-01-11T13:09:21.814Z,6.69
2019-01-11T13:11:53.775Z,6.72
2019-01-11T13:14:24.357Z,6.72
2019-01-11T13:16:55.603Z,6.76
2019-01-11T13:19:26.152Z,6.80
2019-01-11T13:22:00.513Z,6.82
2019-01-11T13:24:29.437Z,6.84
2019-01-11T13:27:00.294Z,6.87
2019-01-11T13:29:32.810Z,6.88
2019-01-11T13:32:03.163Z,6.90
2019-01-11T13:34:33.528Z,6.94
2019-01-11T13:37:03.952Z,6.99
2019-01-11T13:39:36.097Z,6.99
2019-01-11T13:42:06.688Z,7.04
2019-01-11T13:44:37.106Z,7.01
2019-01-11T13:47:07.947Z,7.04
2019-01-11T13:49:38.388Z,7.14
2019-01-11T13:52:08.761Z,7.11
2019-01-11T13:54:39.192Z,7.17
2019-01-11T13:57:09.557Z,7.18
2019-01-11T13:59:41.681Z,7.19
2019-01-11T14:02:12.576Z,7.23
2019-01-11T14:04:43.067Z,7.27
2019-01-11T14:07:13.470Z,7.34
2019-01-11T14:09:43.914Z,7.32
2019-01-11T14:12:14.353Z,7.29
2019-01-11T14:14:47.040Z,7.37
2019-01-11T14:17:17.596Z,7.34
2019-01-11T14:19:48.116Z,7.31
2019-01-11T14:22:20.562Z,7.35
2019-01-11T14:24:51.232Z,7.42
2019-01-11T14:27:21.699Z,7.48
2019-01-11T14:29:52.467Z,7.52
2019-01-11T14:32:22.856Z,7.55
2019-01-11T14:34:54.636Z,7.59
2019-01-11T14:37:24.963Z,7.69
2019-01-11T14:39:55.364Z,7.66
2019-01-11T14:42:25.718Z,7.73
2019-01-11T14:44:56.095Z,7.74
2019-01-11T14:47:26.452Z,7.79
2019-01-11T14:49:57.010Z,7.85
2019-01-11T14:52:27.460Z,7.81
2019-01-11T14:54:58.369Z,7.89
2019-01-11T14:57:28.704Z,7.92
2019-01-11T14:59:59.061Z,7.92
2019-01-11T15:02:29.474Z,8.00
2019-01-11T15:04:59.894Z,8.02
2019-01-11T15:07:31.717Z,8.02
2019-01-11T15:10:04.920Z,7.98
2019-01-11T15:12:35.256Z,8.06
2019-01-11T15:15:06.758Z,8.09
2019-01-11T15:17:37.204Z,8.12
2019-01-11T15:20:10.214Z,8.05
2019-01-11T15:22:40.959Z,8.10
2019-01-11T15:25:12.573Z,8.05
2019-01-11T15:27:42.999Z,8.12
2019-01-11T15:30:19.354Z,8.15
2019-01-11T15:32:51.775Z,8.10
2019-01-11T15:35:22.250Z,8.11
2019-01-11T15:37:52.620Z,8.09
2019-01-11T15:40:36.920Z,8.15
2019-01-11T15:43:06.781Z,8.14
2019-01-11T15:45:37.131Z,8.13
2019-01-11T15:48:07.591Z,8.10
2019-01-11T15:50:57.709Z,8.12
2019-01-11T15:53:34.919Z,8.18
2019-01-11T15:56:07.293Z,8.20
2019-01-11T15:58:37.664Z,8.15
2019-01-11T16:01:08.053Z,8.17
2019-01-11T16:03:38.509Z,8.13
2019-01-11T16:06:32.162Z,8.20
2019-01-11T16:09:56.057Z,8.16
2019-01-11T16:12:44.317Z,8.13
2019-01-11T16:15:44.812Z,8.16
2019-01-11T16:18:28.027Z,8.18
2019-01-11T16:21:01.478Z,8.13
2019-01-11T16:23:32.172Z,8.22
2019-01-11T16:26:02.693Z,8.17
2019-01-11T16:28:33.478Z,8.18
2019-01-11T16:31:04.186Z,8.18
2019-01-11T16:33:34.631Z,8.28
2019-01-11T16:36:08.399Z,8.23
2019-01-11T16:38:38.959Z,8.23
2019-01-11T16:41:15.086Z,8.23
2019-01-11T16:43:45.967Z,8.26
2019-01-11T16:46:16.449Z,8.29
2019-01-11T16:48:49.174Z,8.23
2019-01-11T16:51:20.075Z,8.20
2019-01-11T16:53:50.984Z,8.22
2019-01-11T16:56:21.515Z,8.13
2019-01-11T16:58:52.026Z,8.18
2019-01-11T17:01:22.396Z,8.19
2019-01-11T17:03:53.096Z,8.16
2019-01-11T17:06:23.573Z,8.15
2019-01-11T17:08:54.040Z,8.18
2019-01-11T17:11:24.462Z,8.09
2019-01-11T17:13:56.268Z,8.12
2019-01-11T17:16:27.919Z,8.10
2019-01-11T17:18:58.306Z,8.18
2019-01-11T17:21:29.545Z,8.13
2019-01-11T17:24:00.387Z,8.12
2019-01-11T17:26:31.003Z,8.22
2019-01-11T17:29:03.874Z,8.18
2019-01-11T17:31:48.074Z,8.21
2019-01-11T17:34:20.425Z,8.22
2019-01-11T17:36:53.374Z,8.17
2019-01-11T17:39:25.930Z,8.12
2019-01-11T17:42:17.690Z,8.17
2019-01-11T17:44:50.211Z,8.14
2019-01-11T17:47:20.979Z,8.17
2019-01-11T17:49:51.453Z,8.08
2019-01-11T17:52:21.880Z,8.11
2019-01-11T17:54:52.367Z,8.18
2019-01-11T17:57:22.917Z,8.16
2019-01-11T17:59:53.385Z,8.23
2019-01-11T18:02:24.264Z,8.15
2019-01-11T18:04:57.373Z,8.12
2019-01-11T18:07:28.185Z,8.18
2019-01-11T18:10:01.650Z,8.10
2019-01-11T18:12:33.994Z,8.12
2019-01-11T18:15:06.084Z,8.14
2019-01-11T18:17:37.571Z,8.12
2019-01-11T18:20:12.356Z,8.09
2019-01-11T18:22:46.539Z,8.13
2019-01-11T18:25:19.372Z,8.07
2019-01-11T18:27:49.923Z,8.11
2019-01-11T18:30:20.548Z,8.07
2019-01-11T18:32:51.076Z,7.99
2019-01-11T18:35:21.672Z,7.96
2019-01-11T18:37:52.307Z,8.01
2019-01-11T18:40:24.244Z,7.98
2019-01-11T18:42:54.671Z,7.97
2019-01-11T18:45:28.738Z,8.01
2019-01-11T18:47:57.524Z,7.95
2019-01-11T18:50:28.412Z,7.98
2019-01-11T18:52:58.914Z,7.94
2019-01-11T18:55:29.490Z,7.93
2019-01-11T18:58:00.077Z,8.00
2019-01-11T19:00:30.537Z,7.95
2019-01-11T19:03:01.239Z,7.97
2019-01-11T19:05:31.847Z,7.98
2019-01-11T19:08:07.919Z,7.97
2019-01-11T19:10:39.662Z,7.98
2019-01-11T19:13:10.406Z,8.09
2019-01-11T19:15:42.909Z,8.03
2019-01-11T19:18:13.833Z,8.11
2019-01-11T19:20:44.300Z,8.04
2019-01-11T19:23:20.431Z,8.01
2019-01-11T19:25:47.878Z,8.11
2019-01-11T19:28:18.304Z,8.09
2019-01-11T19:30:49.023Z,8.03
2019-01-11T19:33:21.824Z,8.02
2019-01-11T19:35:55.145Z,7.96
2019-01-11T19:38:25.627Z,7.94
2019-01-11T19:40:56.171Z,7.91
2019-01-11T19:43:26.551Z,7.87
2019-01-11T19:45:56.920Z,7.91
2019-01-11T19:48:27.416Z,7.86
2019-01-11T19:51:01.038Z,7.87
2019-01-11T19:53:31.899Z,7.92
2019-01-11T19:56:02.311Z,7.90
2019-01-11T19:58:32.853Z,7.87
2019-01-11T20:01:03.406Z,7.92
2019-01-11T20:03:34.145Z,7.88
2019-01-11T20:06:04.619Z,7.93
2019-01-11T20:08:35.303Z,7.95
2019-01-11T20:11:07.794Z,7.96
2019-01-11T20:13:38.274Z,7.93
2019-01-11T20:16:08.661Z,7.92
2019-01-11T20:18:39.071Z,7.91
2019-01-11T20:21:09.488Z,7.90
2019-01-11T20:23:39.860Z,7.88
2019-01-11T20:26:10.325Z,7.93
2019-01-11T20:28:40.676Z,7.92
2019-01-11T20:31:11.015Z,7.91
2019-01-11T20:33:41.927Z,7.97
2019-01-11T20:36:13.166Z,7.89
2019-01-11T20:38:43.680Z,7.84
2019-01-11T20:41:14.134Z,7.85
2019-01-11T20:43:44.584Z,7.84
2019-01-11T20:46:15.155Z,7.80
2019-01-11T20:48:45.535Z,7.68
2019-01-11T20:51:16.206Z,7.74
2019-01-11T20:53:46.726Z,7.71
2019-01-11T20:56:17.509Z,7.77
2019-01-11T20:58:48.111Z,7.65
2019-01-11T21:01:18.830Z,7.74
2019-01-11T21:03:49.201Z,7.72
2019-01-11T21:06:19.616Z,7.68
2019-01-11T21:08:53.395Z,7.65
2019-01-11T21:11:25.922Z,7.63
2019-01-11T21:13:58.475Z,7.64
2019-01-11T21:16:28.927Z,7.64
2019-01-11T21:18:59.366Z,7.72
2019-01-11T21:21:30.067Z,7.65
2019-01-11T21:24:00.443Z,7.65
2019-01-11T21:26:30.914Z,7.62
2019-01-11T21:29:01.314Z,7.69
2019-01-11T21:31:31.893Z,7.60
2019-01-11T21:34:02.393Z,7.61
2019-01-11T21:36:32.973Z,7.68
2019-01-11T21:39:03.476Z,7.65
2019-01-11T21:41:33.895Z,7.70
2019-01-11T21:44:06.918Z,7.71
2019-01-11T21:46:37.298Z,7.71
2019-01-11T21:49:07.892Z,7.65
2019-01-11T21:51:38.369Z,7.66
2019-01-11T21:54:09.091Z,7.67
2019-01-11T21:56:42.529Z,7.67
2019-01-11T21:59:12.996Z,7.67
2019-01-11T22:01:43.374Z,7.75
2019-01-11T22:04:13.950Z,7.85
2019-01-11T22:06:44.383Z,7.72
2019-01-11T22:09:14.765Z,7.73
2019-01-11T22:11:45.425Z,7.74
2019-01-11T22:14:16.024Z,7.81
2019-01-11T22:16:46.657Z,7.80
2019-01-11T22:19:17.225Z,7.78
2019-01-11T22:21:47.777Z,7.81
2019-01-11T22:24:18.244Z,7.79
2019-01-11T22:26:48.646Z,7.82
2019-01-11T22:29:19.376Z,7.73
2019-01-11T22:31:50.244Z,7.78
2019-01-11T22:34:20.631Z,7.73
2019-01-11T22:36:51.010Z,7.79
2019-01-11T22:39:21.363Z,7.68
2019-01-11T22:41:51.839Z,7.66
2019-01-11T22:44:22.170Z,7.63
2019-01-11T22:46:54.886Z,7.64
2019-01-11T22:49:25.238Z,7.63
2019-01-11T22:51:55.672Z,7.61
2019-01-11T22:54:26.049Z,7.61
2019-01-11T22:56:56.471Z,7.57
2019-01-11T22:59:30.143Z,7.58
2019-01-11T23:02:10.733Z,7.57
2019-01-11T23:04:41.072Z,7.63
2019-01-11T23:07:26.592Z,7.65
2019-01-11T23:10:00.579Z,7.66
2019-01-11T23:13:09.368Z,7.62
2019-01-11T23:15:42.364Z,7.67
2019-01-11T23:18:15.092Z,7.70
2019-01-11T23:20:45.959Z,7.64
2019-01-11T23:23:16.321Z,7.64
2019-01-11T23:25:46.675Z,7.63
2019-01-11T23:28:17.006Z,7.65
2019-01-11T23:30:47.360Z,7.73
2019-01-11T23:33:19.871Z,7.67
2019-01-11T23:35:50.285Z,7.64
2019-01-11T23:38:20.732Z,7.67
2019-01-11T23:40:51.260Z,7.71
2019-01-11T23:43:21.700Z,7.61
2019-01-11T23:45:52.826Z,7.61
2019-01-11T23:48:23.262Z,7.58
2019-01-11T23:50:53.865Z,7.57
2019-01-11T23:53:24.246Z,7.65
2019-01-11T23:55:56.031Z,7.60
2019-01-11T23:58:26.427Z,7.52
